createdAt,value
2022-08-12T00:03:26.853Z,66.25
2022-08-12T00:09:09.587Z,66.67
2022-08-12T00:14:49.732Z,66.74
2022-08-12T00:20:32.130Z,66.86
2022-08-12T00:26:23.597Z,66.76
2022-08-12T00:32:00.467Z,67.33
2022-08-12T00:37:42.745Z,67.44
2022-08-12T00:43:06.264Z,67.52
2022-08-12T00:48:30.225Z,67.87
2022-08-12T00:53:54.136Z,67.80
2022-08-12T00:59:18.612Z,67.96
2022-08-12T01:05:00.522Z,68.54
2022-08-12T01:10:42.353Z,69.02
2022-08-12T01:16:08.053Z,69.25
2022-08-12T01:21:59.297Z,69.65
2022-08-12T01:27:23.766Z,69.69
2022-08-12T01:32:48.113Z,70.46
2022-08-12T01:38:19.322Z,71.16
2022-08-12T01:43:45.280Z,72.15
2022-08-12T01:49:31.021Z,72.65
2022-08-12T01:54:56.388Z,74.09
2022-08-12T02:00:35.533Z,74.80
2022-08-12T02:06:20.272Z,74.69
2022-08-12T02:11:50.697Z,75.24
2022-08-12T02:17:54.704Z,75.58
2022-08-12T02:23:06.749Z,75.75
2022-08-12T02:28:29.457Z,75.54
2022-08-12T02:33:53.084Z,75.89
2022-08-12T02:39:17.972Z,76.87
2022-08-12T02:44:44.640Z,77.02
2022-08-12T02:50:09.990Z,77.72
2022-08-12T02:55:40.193Z,78.03
2022-08-12T03:01:04.031Z,78.50
2022-08-12T03:06:30.782Z,78.84
2022-08-12T03:12:08.449Z,78.81
2022-08-12T03:17:45.478Z,78.48
2022-08-12T03:23:29.199Z,79.08
2022-08-12T03:28:58.382Z,79.03
2022-08-12T03:34:30.179Z,78.64
2022-08-12T03:39:54.131Z,78.54
2022-08-12T03:45:53.767Z,78.89
2022-08-12T03:51:36.058Z,78.64
2022-08-12T03:57:16.309Z,78.81
2022-08-12T04:02:39.251Z,78.86
2022-08-12T04:08:03.744Z,78.28
2022-08-12T04:13:29.884Z,77.66
2022-08-12T04:18:53.406Z,77.54
2022-08-12T04:24:18.492Z,76.97
2022-08-12T04:30:20.976Z,76.12
2022-08-12T04:35:06.678Z,75.83
2022-08-12T04:40:31.491Z,75.30
2022-08-12T04:45:55.491Z,74.85
2022-08-12T04:51:17.963Z,74.39
2022-08-12T04:56:40.749Z,73.92
2022-08-12T05:02:05.356Z,73.64
2022-08-12T05:07:29.322Z,73.35
2022-08-12T05:13:04.959Z,73.24
2022-08-12T05:18:29.295Z,72.76
2022-08-12T05:23:55.390Z,71.73
2022-08-12T05:30:06.861Z,70.31
2022-08-12T05:34:42.585Z,69.15
2022-08-12T05:40:10.733Z,67.94
2022-08-12T05:45:29.277Z,67.12
2022-08-12T05:50:54.262Z,66.13
2022-08-12T05:56:36.547Z,64.45
2022-08-12T06:02:12.548Z,64.14
2022-08-12T06:07:59.229Z,63.67
2022-08-12T06:12:50.468Z,62.43
2022-08-12T06:18:19.476Z,60.91
2022-08-12T06:23:43.029Z,59.33
2022-08-12T06:29:05.993Z,58.75
2022-08-12T06:35:22.508Z,58.11
2022-08-12T06:39:53.740Z,57.72
2022-08-12T06:45:16.695Z,56.46
2022-08-12T06:50:40.160Z,55.79
2022-08-12T06:56:03.360Z,55.29
2022-08-12T07:01:27.994Z,54.88
2022-08-12T07:06:50.308Z,54.06
2022-08-12T07:12:14.225Z,53.24
2022-08-12T07:17:38.269Z,53.09
2022-08-12T07:23:01.096Z,52.83
2022-08-12T07:28:30.187Z,51.93
2022-08-12T07:33:55.711Z,50.97
2022-08-12T07:39:19.215Z,50.91
2022-08-12T07:44:41.520Z,51.67
2022-08-12T07:50:06.836Z,51.86
2022-08-12T07:55:30.471Z,51.44
2022-08-12T08:00:59.661Z,50.23
2022-08-12T08:06:25.061Z,49.54
2022-08-12T08:12:05.474Z,49.39
2022-08-12T08:17:28.005Z,48.63
2022-08-12T08:22:51.615Z,47.50
2022-08-12T08:28:22.295Z,47.01
2022-08-12T08:34:09.390Z,47.14
2022-08-12T08:39:09.117Z,46.61
2022-08-12T08:44:31.559Z,45.71
2022-08-12T08:49:56.380Z,44.94
2022-08-12T08:55:27.377Z,43.21
2022-08-12T09:00:44.136Z,42.23
2022-08-12T09:06:09.520Z,41.04
2022-08-12T09:11:52.525Z,39.62
2022-08-12T09:17:21.490Z,36.47
2022-08-12T09:22:49.166Z,36.42
2022-08-12T09:34:25.722Z,34.67
2022-08-12T09:39:01.854Z,35.04
2022-08-12T09:44:43.623Z,34.07
2022-08-12T09:50:06.465Z,34.94
2022-08-12T09:56:05.512Z,34.10
2022-08-12T10:00:57.672Z,34.54
2022-08-12T10:06:31.426Z,32.98
2022-08-12T10:12:11.984Z,32.37
2022-08-12T10:17:31.980Z,31.40
2022-08-12T10:23:05.857Z,32.34
2022-08-12T10:29:01.689Z,32.46
2022-08-12T10:34:26.038Z,31.39
2022-08-12T10:40:01.091Z,30.32
2022-08-12T10:45:05.082Z,30.11
2022-08-12T10:50:56.153Z,29.34
2022-08-12T10:55:56.415Z,31.03
2022-08-12T11:01:49.332Z,31.22
2022-08-12T20:43:10.570Z,54.14
2022-08-12T20:48:35.547Z,53.61
2022-08-12T20:54:00.733Z,53.88
2022-08-12T20:59:31.628Z,53.73
2022-08-12T21:05:19.521Z,54.05
2022-08-12T21:10:38.575Z,54.13
2022-08-12T21:16:02.453Z,54.23
2022-08-12T21:21:24.627Z,54.38
2022-08-12T21:26:53.469Z,54.73
2022-08-12T21:32:37.136Z,55.04
2022-08-12T21:37:41.926Z,55.26
2022-08-12T21:43:05.959Z,55.60
2022-08-12T21:48:28.321Z,56.03
2022-08-12T21:54:07.283Z,56.16
2022-08-12T21:59:14.787Z,56.45
2022-08-12T22:04:55.348Z,57.20
2022-08-12T22:10:28.301Z,57.66
2022-08-12T22:15:45.755Z,57.89
2022-08-12T22:21:11.360Z,58.24
2022-08-12T22:26:37.306Z,58.67
2022-08-12T22:31:58.472Z,58.59
2022-08-12T22:37:20.759Z,58.65
2022-08-12T22:43:05.673Z,58.98
2022-08-12T22:48:27.287Z,58.95
2022-08-12T22:53:51.580Z,59.14
2022-08-12T22:59:14.573Z,59.47
2022-08-12T23:04:37.674Z,59.62
2022-08-12T23:10:00.305Z,59.78
2022-08-12T23:15:24.042Z,60.09
2022-08-12T23:20:46.809Z,60.09
2022-08-12T23:26:11.323Z,60.45
2022-08-12T23:32:02.715Z,61.55
2022-08-12T23:37:00.636Z,62.08
2022-08-12T23:42:31.015Z,61.95
2022-08-12T23:47:59.108Z,62.10
2022-08-12T23:53:26.882Z,62.25
2022-08-12T23:58:53.039Z,62.29
